RJTH(METAR)
10/02 06:30
RJTH 012130Z 04011G21KT 9999 FEW024 SCTXXX 24/20 Q1018 RMK A3008=
戻る
トップページへ戻る
IMOC Co,.Ltd.